createdAt,value
2023-05-10T00:02:17.533Z,4.10
2023-05-10T00:04:46.717Z,3.92
2023-05-10T00:07:14.564Z,4.40
2023-05-10T00:09:42.337Z,4.43
2023-05-10T00:12:10.228Z,4.00
2023-05-10T00:14:38.011Z,4.07
2023-05-10T00:17:05.914Z,4.40
2023-05-10T00:19:33.732Z,4.57
2023-05-10T00:22:02.940Z,4.40
2023-05-10T00:24:30.778Z,4.50
2023-05-10T00:26:58.653Z,4.63
2023-05-10T00:29:26.493Z,4.82
2023-05-10T00:31:54.900Z,4.97
2023-05-10T00:34:22.868Z,4.88
2023-05-10T00:36:50.720Z,4.90
2023-05-10T00:39:20.038Z,4.88
2023-05-10T00:41:48.008Z,4.68
2023-05-10T00:44:17.139Z,4.78
2023-05-10T00:46:46.202Z,4.63
2023-05-10T00:49:15.129Z,5.15
2023-05-10T00:51:43.930Z,4.90
2023-05-10T00:54:13.076Z,5.20
2023-05-10T00:56:42.742Z,4.20
2023-05-10T00:59:11.001Z,4.22
2023-05-10T01:01:39.913Z,4.70
2023-05-10T01:04:07.798Z,5.00
2023-05-10T01:06:35.648Z,4.82
2023-05-10T01:09:03.502Z,4.30
2023-05-10T01:11:31.400Z,4.15
2023-05-10T01:14:01.452Z,4.15
2023-05-10T01:16:31.778Z,4.00
2023-05-10T01:19:00.172Z,3.47
2023-05-10T01:21:34.345Z,3.55
2023-05-10T01:24:44.324Z,3.33
2023-05-10T01:27:32.381Z,2.88
2023-05-10T01:30:50.937Z,3.33
2023-05-10T01:33:25.707Z,3.17
2023-05-10T01:36:01.487Z,3.03
2023-05-10T01:38:39.026Z,3.22
2023-05-10T01:41:15.009Z,3.17
2023-05-10T01:43:54.836Z,3.28
2023-05-10T01:46:29.270Z,3.05
2023-05-10T01:49:01.584Z,3.35
2023-05-10T01:51:38.369Z,3.28
2023-05-10T01:54:08.024Z,3.38
2023-05-10T01:56:39.664Z,3.15
2023-05-10T01:59:11.364Z,3.38
2023-05-10T02:01:40.046Z,3.92
2023-05-10T02:04:11.608Z,3.38
2023-05-10T02:06:41.635Z,3.40
2023-05-10T02:09:11.112Z,3.95
2023-05-10T02:11:40.541Z,3.75
2023-05-10T02:14:11.555Z,4.07
2023-05-10T02:16:41.683Z,4.05
2023-05-10T02:19:12.627Z,3.38
2023-05-10T02:21:42.024Z,3.50
2023-05-10T02:24:12.488Z,4.10
2023-05-10T02:26:40.620Z,4.07
2023-05-10T02:29:09.929Z,3.40
2023-05-10T02:31:39.796Z,3.40
2023-05-10T02:34:10.615Z,3.83
2023-05-10T02:36:43.748Z,3.85
2023-05-10T02:39:13.768Z,3.38
2023-05-10T02:41:43.057Z,3.53
2023-05-10T02:44:11.904Z,3.50
2023-05-10T02:46:40.122Z,3.70
2023-05-10T02:49:08.037Z,4.07
2023-05-10T02:51:39.476Z,3.58
2023-05-10T02:54:17.526Z,4.03
2023-05-10T02:56:51.496Z,3.95
2023-05-10T02:59:19.606Z,3.63
2023-05-10T03:01:47.532Z,3.40
2023-05-10T03:04:15.881Z,3.63
2023-05-10T03:06:43.866Z,3.83
2023-05-10T03:09:16.432Z,3.58
2023-05-10T03:11:57.456Z,3.60
2023-05-10T03:14:36.862Z,3.67
2023-05-10T03:17:10.900Z,3.58
2023-05-10T03:19:45.382Z,4.00
2023-05-10T03:22:17.650Z,3.15
2023-05-10T03:24:48.734Z,3.50
2023-05-10T03:27:18.470Z,3.63
2023-05-10T03:29:47.852Z,3.15
2023-05-10T03:32:16.368Z,2.97
2023-05-10T03:34:44.700Z,3.30
2023-05-10T03:37:12.661Z,3.40
2023-05-10T03:39:40.548Z,3.03
2023-05-10T03:42:13.115Z,3.13
2023-05-10T03:44:41.246Z,3.15
2023-05-10T03:47:10.396Z,3.13
2023-05-10T03:49:38.412Z,3.22
2023-05-10T03:52:06.344Z,3.22
2023-05-10T03:54:34.261Z,3.22
2023-05-10T03:57:02.406Z,3.40
2023-05-10T03:59:32.378Z,3.17
2023-05-10T04:02:00.327Z,3.13
2023-05-10T04:04:28.301Z,3.58
2023-05-10T04:06:56.246Z,3.80
2023-05-10T04:09:24.091Z,4.18
2023-05-10T04:11:52.111Z,3.83
2023-05-10T04:14:19.905Z,4.40
2023-05-10T04:16:49.166Z,4.38
2023-05-10T04:19:17.203Z,4.57
2023-05-10T04:21:45.010Z,4.93
2023-05-10T04:24:13.517Z,4.95
2023-05-10T04:26:41.535Z,4.95
2023-05-10T04:29:09.397Z,4.88
2023-05-10T04:31:37.273Z,5.25
2023-05-10T04:34:06.641Z,5.32
2023-05-10T04:36:36.346Z,5.63
2023-05-10T04:39:04.784Z,4.90
2023-05-10T04:41:32.656Z,6.40
2023-05-10T04:44:00.445Z,6.50
2023-05-10T04:46:28.365Z,7.03
2023-05-10T04:48:56.188Z,7.38
2023-05-10T04:51:25.439Z,6.57
2023-05-10T04:54:05.066Z,7.32
2023-05-10T04:56:34.793Z,6.53
2023-05-10T04:59:02.798Z,7.40
2023-05-10T05:01:30.758Z,7.50
2023-05-10T05:03:58.880Z,7.20
2023-05-10T05:06:28.375Z,8.07
2023-05-10T05:08:56.156Z,8.10
2023-05-10T05:11:24.011Z,7.60
2023-05-10T05:13:51.879Z,7.20
2023-05-10T05:16:19.862Z,7.28
2023-05-10T05:18:47.799Z,7.40
2023-05-10T05:21:17.341Z,7.93
2023-05-10T05:23:47.329Z,7.90
2023-05-10T05:26:15.875Z,7.88
2023-05-10T05:28:44.506Z,6.95
2023-05-10T05:31:13.109Z,7.45
2023-05-10T05:33:41.237Z,7.72
2023-05-10T05:36:09.504Z,7.88
2023-05-10T05:38:37.646Z,6.85
2023-05-10T05:41:07.348Z,7.22
2023-05-10T05:43:38.069Z,6.30
2023-05-10T05:46:07.012Z,6.45
2023-05-10T05:48:34.982Z,6.00
2023-05-10T05:51:03.436Z,6.20
2023-05-10T05:53:32.514Z,5.75
2023-05-10T05:56:00.924Z,6.47
2023-05-10T05:58:30.175Z,5.55
2023-05-10T06:00:58.362Z,6.32
2023-05-10T06:03:26.517Z,5.90
2023-05-10T06:05:54.674Z,5.88
2023-05-10T06:08:22.628Z,6.13
2023-05-10T06:10:50.543Z,5.85
2023-05-10T06:13:18.438Z,5.55
2023-05-10T06:15:47.931Z,6.10
2023-05-10T06:18:15.892Z,5.82
2023-05-10T06:20:44.175Z,6.25
2023-05-10T06:23:12.055Z,5.55
2023-05-10T06:25:40.181Z,5.65
2023-05-10T06:28:08.377Z,6.45
2023-05-10T06:30:38.286Z,5.82
2023-05-10T06:33:07.768Z,5.88
2023-05-10T06:35:35.669Z,5.82
2023-05-10T06:38:03.640Z,5.70
2023-05-10T06:40:31.658Z,5.22
2023-05-10T06:42:59.597Z,5.93
2023-05-10T06:45:27.606Z,5.75
2023-05-10T06:47:55.607Z,6.10
2023-05-10T06:50:24.928Z,5.95
2023-05-10T06:52:53.259Z,5.80
2023-05-10T06:55:21.262Z,6.35
2023-05-10T06:57:51.483Z,6.22
2023-05-10T07:00:21.039Z,6.40
2023-05-10T07:02:49.934Z,5.75
2023-05-10T07:05:18.336Z,7.10
2023-05-10T07:07:47.942Z,6.68
2023-05-10T07:10:15.953Z,6.72
2023-05-10T07:12:44.213Z,5.95
2023-05-10T07:15:12.763Z,6.68
2023-05-10T07:17:43.242Z,6.97
2023-05-10T07:20:13.952Z,6.60
2023-05-10T07:22:41.948Z,6.68
2023-05-10T07:25:11.957Z,6.90
2023-05-10T07:27:39.995Z,6.32
2023-05-10T07:30:09.399Z,6.20
2023-05-10T07:32:37.475Z,6.32
2023-05-10T07:35:06.621Z,6.07
2023-05-10T07:37:34.981Z,6.10
2023-05-10T07:40:03.252Z,6.18
2023-05-10T07:42:32.748Z,6.00
2023-05-10T07:45:00.738Z,5.28
2023-05-10T07:47:28.737Z,5.85
2023-05-10T07:49:56.637Z,5.40
2023-05-10T07:52:24.512Z,5.75
2023-05-10T07:54:52.441Z,5.15
2023-05-10T07:57:20.416Z,5.15
2023-05-10T07:59:49.879Z,5.43
2023-05-10T08:02:17.854Z,6.38
2023-05-10T08:04:45.897Z,7.38
2023-05-10T08:07:13.973Z,7.25
2023-05-10T08:09:41.975Z,7.65
2023-05-10T08:12:10.078Z,8.82
2023-05-10T08:14:38.532Z,9.43
2023-05-10T08:17:07.972Z,9.80
2023-05-10T08:19:36.119Z,10.68
2023-05-10T08:22:04.166Z,10.38
2023-05-10T08:24:32.180Z,9.75
2023-05-10T08:27:00.183Z,11.02
2023-05-10T08:29:30.444Z,11.48
2023-05-10T08:31:58.511Z,12.43
2023-05-10T08:34:27.999Z,12.52
2023-05-10T08:36:56.565Z,12.10
2023-05-10T08:39:30.270Z,12.48
2023-05-10T08:42:04.316Z,12.48
2023-05-10T08:44:34.492Z,11.55
2023-05-10T08:47:21.769Z,11.10
2023-05-10T08:49:52.933Z,11.80
2023-05-10T08:52:21.710Z,11.18
2023-05-10T08:54:49.862Z,11.55
2023-05-10T08:57:18.322Z,11.98
2023-05-10T08:59:46.395Z,11.85
2023-05-10T09:02:18.608Z,11.50
2023-05-10T09:04:46.950Z,10.50
2023-05-10T09:07:16.972Z,11.63
2023-05-10T09:09:45.550Z,10.80
2023-05-10T09:12:16.599Z,11.60
2023-05-10T09:14:46.780Z,10.90
2023-05-10T09:17:15.427Z,11.02
2023-05-10T09:19:43.644Z,9.70
2023-05-10T09:22:12.596Z,9.18
2023-05-10T09:24:46.145Z,9.77
2023-05-10T09:27:14.859Z,9.60
2023-05-10T09:29:45.349Z,8.65
2023-05-10T09:32:14.327Z,8.77
2023-05-10T09:34:43.821Z,9.02
2023-05-10T09:37:12.409Z,8.40
2023-05-10T09:39:42.479Z,8.65
2023-05-10T09:42:14.222Z,8.40
2023-05-10T09:44:44.802Z,8.30
2023-05-10T09:47:13.062Z,8.07
2023-05-10T09:49:41.352Z,8.25
2023-05-10T09:52:10.205Z,8.30
2023-05-10T09:54:39.084Z,7.75
2023-05-10T09:57:33.390Z,7.82
2023-05-10T10:00:05.606Z,7.45
2023-05-10T10:02:41.784Z,7.35
2023-05-10T10:05:10.636Z,8.05
2023-05-10T10:07:38.861Z,7.45
2023-05-10T10:10:12.577Z,6.43
2023-05-10T10:12:43.662Z,6.70
2023-05-10T10:15:13.492Z,6.28
2023-05-10T10:17:45.014Z,6.82
2023-05-10T10:20:13.883Z,6.25
2023-05-10T10:22:42.023Z,7.00
2023-05-10T10:25:10.871Z,6.72
2023-05-10T10:27:50.958Z,6.68
2023-05-10T10:30:28.400Z,7.18
2023-05-10T10:33:27.831Z,7.40
2023-05-10T10:36:00.013Z,7.55
2023-05-10T10:38:28.408Z,7.43
2023-05-10T10:41:05.070Z,8.00
2023-05-10T10:43:34.419Z,7.45
2023-05-10T10:46:15.922Z,7.28
2023-05-10T10:48:49.049Z,6.15
2023-05-10T10:51:16.937Z,6.95
2023-05-10T10:53:45.461Z,7.32
2023-05-10T10:56:16.243Z,6.55
2023-05-10T10:58:52.251Z,6.78
2023-05-10T11:01:21.572Z,6.05
2023-05-10T11:04:21.656Z,5.13
2023-05-10T11:06:49.841Z,6.60
2023-05-10T11:09:18.785Z,6.13
2023-05-10T11:11:57.117Z,6.63
2023-05-10T11:14:27.549Z,6.13
2023-05-10T11:16:55.391Z,6.70
2023-05-10T11:19:23.454Z,7.15
2023-05-10T11:21:53.194Z,7.60
2023-05-10T11:24:23.109Z,7.50
2023-05-10T11:26:53.282Z,7.45
2023-05-10T11:29:21.472Z,7.95
2023-05-10T11:31:51.939Z,7.70
2023-05-10T11:34:31.255Z,7.10
2023-05-10T11:37:37.736Z,6.97
2023-05-10T11:53:45.520Z,7.32
2023-05-10T11:56:14.968Z,6.80
2023-05-10T11:58:43.183Z,7.47
2023-05-10T12:01:13.983Z,7.72
2023-05-10T12:03:42.782Z,6.97
2023-05-10T12:06:10.880Z,7.22
2023-05-10T12:08:46.290Z,7.03
2023-05-10T12:11:17.099Z,7.47
2023-05-10T12:13:47.623Z,7.35
2023-05-10T12:16:16.604Z,7.68
2023-05-10T12:18:47.584Z,7.32
2023-05-10T12:21:16.909Z,7.15
2023-05-10T12:23:47.168Z,7.72
2023-05-10T12:26:16.994Z,7.85
2023-05-10T12:28:45.304Z,8.25
2023-05-10T12:31:13.468Z,8.20
2023-05-10T12:33:43.764Z,8.48
2023-05-10T12:36:13.034Z,7.57
2023-05-10T12:55:58.100Z,7.45
2023-05-10T12:58:35.089Z,9.15
2023-05-10T13:01:05.228Z,8.93
2023-05-10T13:03:33.576Z,8.75
2023-05-10T13:06:02.210Z,7.97
2023-05-10T13:08:34.603Z,9.27
2023-05-10T13:11:05.493Z,9.43
2023-05-10T13:13:35.819Z,9.65
2023-05-10T13:16:04.286Z,9.75
2023-05-10T13:18:32.710Z,9.50
2023-05-10T13:21:00.852Z,10.02
2023-05-10T13:23:29.252Z,9.82
2023-05-10T13:25:57.459Z,9.38
2023-05-10T13:28:27.663Z,9.48
2023-05-10T13:30:56.045Z,10.20
2023-05-10T13:33:24.463Z,8.90
2023-05-10T13:35:55.563Z,8.27
2023-05-10T13:38:24.171Z,8.23
2023-05-10T13:40:53.824Z,8.25
2023-05-10T13:43:22.102Z,8.57
2023-05-10T13:45:51.522Z,8.93
2023-05-10T13:48:19.763Z,8.25
2023-05-10T13:50:48.206Z,7.63
2023-05-10T13:53:16.564Z,6.60
2023-05-10T13:55:44.850Z,6.82
2023-05-10T13:58:13.419Z,6.00
2023-05-10T14:00:41.551Z,5.75
2023-05-10T14:03:12.636Z,6.00
2023-05-10T14:05:40.989Z,4.78
2023-05-10T14:08:10.378Z,5.63
2023-05-10T14:10:40.936Z,5.13
2023-05-10T14:13:21.756Z,5.97
2023-05-10T14:15:49.998Z,5.68
2023-05-10T14:18:19.665Z,5.35
2023-05-10T14:20:48.402Z,5.70
2023-05-10T14:23:41.993Z,5.32
2023-05-10T14:26:18.234Z,5.40
2023-05-10T14:29:49.729Z,5.90
2023-05-10T14:32:45.212Z,5.63
2023-05-10T14:36:34.551Z,5.15
2023-05-10T14:44:01.807Z,5.18
2023-05-10T14:46:37.437Z,5.00
2023-05-10T14:49:11.186Z,4.95
2023-05-10T14:51:58.547Z,5.30
2023-05-10T14:54:42.330Z,5.00
2023-05-10T14:57:40.846Z,5.10
2023-05-10T15:00:32.056Z,5.40
2023-05-10T15:03:37.807Z,4.88
2023-05-10T15:15:00.844Z,4.93
2023-05-10T15:17:35.561Z,4.45
2023-05-10T15:20:16.082Z,4.68
2023-05-10T15:22:52.870Z,4.82
2023-05-10T15:25:21.243Z,4.63
2023-05-10T15:28:32.430Z,4.53
2023-05-10T15:31:25.092Z,4.15
2023-05-10T15:33:59.127Z,4.80
2023-05-10T15:36:26.989Z,4.68
2023-05-10T15:38:55.813Z,4.28
2023-05-10T15:41:23.721Z,3.55
2023-05-10T15:43:51.537Z,3.33
2023-05-10T15:46:19.440Z,3.50
2023-05-10T15:48:47.355Z,3.40
2023-05-10T15:51:16.707Z,3.42
2023-05-10T15:53:53.099Z,4.00
2023-05-10T15:56:28.505Z,4.05
2023-05-10T15:58:56.360Z,4.25
2023-05-10T16:01:24.339Z,4.18
2023-05-10T16:03:52.332Z,4.20
2023-05-10T16:06:21.590Z,4.78
2023-05-10T16:08:56.270Z,4.05
2023-05-10T16:11:24.207Z,4.05
2023-05-10T16:13:52.795Z,3.47
2023-05-10T16:16:20.813Z,3.40
2023-05-10T16:18:48.739Z,4.10
2023-05-10T16:21:16.833Z,3.60
2023-05-10T16:23:46.730Z,3.60
2023-05-10T16:26:14.666Z,3.63
2023-05-10T16:28:42.575Z,3.33
2023-05-10T16:31:10.677Z,3.45
2023-05-10T16:33:38.558Z,4.10
2023-05-10T16:36:06.604Z,3.40
2023-05-10T16:38:34.657Z,3.38
2023-05-10T16:41:04.739Z,3.10
2023-05-10T16:43:33.584Z,2.78
2023-05-10T16:46:01.443Z,2.58
2023-05-10T16:48:29.270Z,2.45
2023-05-10T16:50:57.089Z,1.92
2023-05-10T16:53:25.014Z,1.85
2023-05-10T16:55:52.811Z,1.85
2023-05-10T16:58:22.167Z,1.58
2023-05-10T17:00:50.193Z,1.83
2023-05-10T17:03:18.160Z,1.38
2023-05-10T17:05:46.046Z,1.58
2023-05-10T17:08:13.868Z,1.23
2023-05-10T17:10:41.789Z,1.40
2023-05-10T17:13:10.594Z,1.23
2023-05-10T17:15:40.476Z,1.30
2023-05-10T17:18:10.181Z,1.30
2023-05-10T17:20:39.249Z,1.27
2023-05-10T17:23:07.369Z,1.30
2023-05-10T17:25:36.231Z,1.25
2023-05-10T17:28:04.426Z,1.38
2023-05-10T17:30:32.897Z,1.67
2023-05-10T17:33:02.217Z,1.50
2023-05-10T17:35:31.519Z,1.67
2023-05-10T17:37:59.432Z,1.73
2023-05-10T17:40:27.216Z,1.58
2023-05-10T17:42:55.026Z,1.60
2023-05-10T17:45:22.800Z,1.80
2023-05-10T17:47:50.743Z,1.85
2023-05-10T17:50:19.943Z,2.00
2023-05-10T17:52:47.711Z,2.20
2023-05-10T17:55:15.910Z,1.88
2023-05-10T17:57:44.350Z,1.80
2023-05-10T18:00:13.500Z,2.00
2023-05-10T18:02:42.524Z,1.60
2023-05-10T18:05:11.617Z,1.80
2023-05-10T18:07:40.997Z,1.40
2023-05-10T18:10:09.890Z,1.60
2023-05-10T18:12:37.709Z,1.70
2023-05-10T18:15:06.114Z,1.88
2023-05-10T18:17:34.973Z,1.80
2023-05-10T18:20:03.200Z,1.83
2023-05-10T18:22:31.014Z,1.58
2023-05-10T18:25:00.325Z,1.90
2023-05-10T18:27:28.366Z,1.77
2023-05-10T18:29:56.250Z,1.83
2023-05-10T18:32:24.916Z,1.65
2023-05-10T18:34:54.967Z,1.95
2023-05-10T18:37:23.683Z,1.70
2023-05-10T18:39:51.844Z,1.88
2023-05-10T18:42:21.577Z,2.10
2023-05-10T18:44:49.578Z,2.00
2023-05-10T18:47:17.399Z,1.98
2023-05-10T18:49:46.179Z,1.83
2023-05-10T18:52:16.018Z,1.98
2023-05-10T18:54:43.832Z,1.98
2023-05-10T18:57:12.419Z,2.20
2023-05-10T18:59:41.715Z,1.92
2023-05-10T19:02:09.705Z,1.90
2023-05-10T19:04:37.784Z,1.90
2023-05-10T19:07:05.673Z,1.98
2023-05-10T19:09:33.516Z,1.90
2023-05-10T19:12:01.562Z,1.88
2023-05-10T19:14:29.732Z,1.98
2023-05-10T19:17:01.190Z,1.92
2023-05-10T19:19:30.395Z,2.03
2023-05-10T19:21:59.215Z,2.10
2023-05-10T19:24:27.152Z,2.05
2023-05-10T19:26:56.348Z,1.95
2023-05-10T19:29:24.404Z,2.38
2023-05-10T19:31:52.982Z,2.50
2023-05-10T19:34:22.336Z,2.22
2023-05-10T19:36:50.246Z,2.63
2023-05-10T19:39:18.209Z,2.50
2023-05-10T19:41:46.058Z,2.70
2023-05-10T19:44:13.932Z,2.65
2023-05-10T19:46:41.935Z,2.83
2023-05-10T19:49:09.749Z,2.55
2023-05-10T19:51:39.017Z,2.80
2023-05-10T19:54:07.216Z,3.08
2023-05-10T19:56:35.144Z,2.58
2023-05-10T19:59:04.015Z,2.50
2023-05-10T20:01:32.800Z,2.30
2023-05-10T20:04:00.914Z,2.15
2023-05-10T20:06:28.940Z,2.60
2023-05-10T20:08:58.202Z,2.38
2023-05-10T20:11:26.030Z,2.70
2023-05-10T20:13:54.025Z,2.50
2023-05-10T20:16:22.599Z,2.30
2023-05-10T20:18:53.644Z,3.10
2023-05-10T20:21:23.895Z,3.00
2023-05-10T20:23:51.779Z,2.95
2023-05-10T20:26:21.659Z,2.60
2023-05-10T20:28:49.529Z,3.22
2023-05-10T20:31:17.663Z,3.63
2023-05-10T20:33:45.563Z,3.45
2023-05-10T20:36:13.757Z,3.38
2023-05-10T20:38:41.557Z,3.60
2023-05-10T20:41:09.400Z,3.40
2023-05-10T20:43:38.805Z,3.42
2023-05-10T20:46:07.064Z,3.25
2023-05-10T20:48:35.164Z,3.15
2023-05-10T20:51:03.331Z,2.90
2023-05-10T20:53:31.195Z,3.30
2023-05-10T20:55:58.965Z,2.90
2023-05-10T20:58:27.079Z,3.28
2023-05-10T21:00:56.354Z,3.30
2023-05-10T21:03:24.410Z,3.42
2023-05-10T21:05:52.289Z,3.42
2023-05-10T21:08:20.178Z,3.53
2023-05-10T21:10:48.037Z,3.90
2023-05-10T21:13:16.336Z,3.60
2023-05-10T21:15:44.105Z,3.70
2023-05-10T21:18:13.308Z,3.95
2023-05-10T21:20:41.147Z,4.40
2023-05-10T21:23:08.990Z,4.10
2023-05-10T21:25:37.624Z,3.97
2023-05-10T21:28:05.704Z,3.92
2023-05-10T21:30:33.705Z,3.97
2023-05-10T21:33:02.602Z,4.03
2023-05-10T21:35:31.936Z,3.97
2023-05-10T21:37:59.741Z,3.60
2023-05-10T21:40:27.640Z,3.60
2023-05-10T21:42:55.502Z,3.60
2023-05-10T21:45:23.363Z,3.35
2023-05-10T21:47:51.184Z,3.65
2023-05-10T21:50:19.510Z,3.72
2023-05-10T21:52:48.906Z,3.75
2023-05-10T21:55:16.995Z,4.10
2023-05-10T21:57:45.357Z,4.30
2023-05-10T22:00:16.260Z,4.18
2023-05-10T22:02:44.314Z,4.00
2023-05-10T22:05:12.373Z,4.28
2023-05-10T22:07:40.221Z,4.45
2023-05-10T22:10:10.263Z,3.85
2023-05-10T22:12:38.125Z,4.03
2023-05-10T22:15:10.508Z,4.22
2023-05-10T22:17:39.896Z,4.60
2023-05-10T22:20:09.425Z,3.95
2023-05-10T22:22:37.655Z,4.70
2023-05-10T22:25:07.560Z,3.95
2023-05-10T22:27:37.006Z,4.97
2023-05-10T22:30:05.601Z,4.55
2023-05-10T22:32:34.115Z,4.85
2023-05-10T22:35:02.174Z,4.75
2023-05-10T22:37:30.019Z,5.07
2023-05-10T22:39:57.813Z,5.18
2023-05-10T22:42:25.600Z,5.10
2023-05-10T22:44:54.880Z,5.63
2023-05-10T22:47:22.818Z,5.78
2023-05-10T22:49:50.606Z,5.18
2023-05-10T22:52:18.359Z,5.35
2023-05-10T22:54:46.293Z,5.22
2023-05-10T22:57:14.403Z,4.70
2023-05-10T22:59:42.461Z,5.10
2023-05-10T23:02:14.155Z,5.30
2023-05-10T23:04:42.203Z,5.78
2023-05-10T23:07:10.180Z,5.90
2023-05-10T23:09:38.003Z,5.95
2023-05-10T23:12:05.887Z,5.38
2023-05-10T23:14:33.783Z,5.55
2023-05-10T23:17:01.596Z,6.20
2023-05-10T23:19:30.903Z,5.72
2023-05-10T23:21:59.347Z,6.60
2023-05-10T23:24:27.294Z,6.97
2023-05-10T23:26:55.083Z,7.03
2023-05-10T23:29:23.865Z,6.88
2023-05-10T23:31:51.716Z,7.25
2023-05-10T23:34:19.696Z,7.15
2023-05-10T23:36:48.830Z,7.05
2023-05-10T23:39:16.663Z,6.95
2023-05-10T23:41:44.612Z,7.15
2023-05-10T23:44:12.555Z,7.28
2023-05-10T23:46:40.343Z,7.18
2023-05-10T23:49:08.119Z,7.82
2023-05-10T23:51:36.052Z,7.13
2023-05-10T23:54:05.321Z,6.80
2023-05-10T23:56:33.184Z,6.53
2023-05-10T23:59:01.268Z,6.85
